sensor_id;sensor_type;location;lat;lon;timestamp;P1;durP1;ratioP1;P2;durP2;ratioP2
17993;SDS011;9122;48.406;9.984;2022-12-18T00:02:24;50.27;;;26.90;;
17993;SDS011;9122;48.406;9.984;2022-12-18T00:05:09;49.43;;;25.67;;
17993;SDS011;9122;48.406;9.984;2022-12-18T00:07:54;54.37;;;28.47;;
17993;SDS011;9122;48.406;9.984;2022-12-18T00:10:38;49.30;;;27.93;;
17993;SDS011;9122;48.406;9.984;2022-12-18T00:13:26;50.53;;;27.77;;
17993;SDS011;9122;48.406;9.984;2022-12-18T00:16:13;52.40;;;27.20;;
17993;SDS011;9122;48.406;9.984;2022-12-18T00:18:59;48.80;;;27.17;;
17993;SDS011;9122;48.406;9.984;2022-12-18T00:21:44;55.93;;;27.37;;
17993;SDS011;9122;48.406;9.984;2022-12-18T00:24:28;53.97;;;28.47;;
17993;SDS011;9122;48.406;9.984;2022-12-18T00:27:13;56.43;;;28.13;;
17993;SDS011;9122;48.406;9.984;2022-12-18T00:29:58;55.80;;;27.87;;
17993;SDS011;9122;48.406;9.984;2022-12-18T00:32:42;50.37;;;27.13;;
17993;SDS011;9122;48.406;9.984;2022-12-18T00:35:27;54.67;;;26.43;;
17993;SDS011;9122;48.406;9.984;2022-12-18T00:38:11;51.93;;;25.93;;
17993;SDS011;9122;48.406;9.984;2022-12-18T00:40:56;48.57;;;26.80;;
17993;SDS011;9122;48.406;9.984;2022-12-18T00:43:41;45.67;;;26.50;;
17993;SDS011;9122;48.406;9.984;2022-12-18T00:46:26;51.77;;;25.47;;
17993;SDS011;9122;48.406;9.984;2022-12-18T00:49:10;51.70;;;27.53;;
17993;SDS011;9122;48.406;9.984;2022-12-18T00:51:56;49.43;;;27.60;;
17993;SDS011;9122;48.406;9.984;2022-12-18T00:54:41;49.27;;;27.13;;
17993;SDS011;9122;48.406;9.984;2022-12-18T00:57:25;52.83;;;26.07;;
17993;SDS011;9122;48.406;9.984;2022-12-18T01:00:12;49.60;;;26.67;;
17993;SDS011;9122;48.406;9.984;2022-12-18T01:02:58;48.43;;;26.10;;
17993;SDS011;9122;48.406;9.984;2022-12-18T01:05:43;45.30;;;25.47;;
17993;SDS011;9122;48.406;9.984;2022-12-18T01:08:27;50.07;;;29.37;;
17993;SDS011;9122;48.406;9.984;2022-12-18T01:11:13;45.00;;;26.20;;
17993;SDS011;9122;48.406;9.984;2022-12-18T01:13:59;48.17;;;27.57;;
17993;SDS011;9122;48.406;9.984;2022-12-18T01:16:44;51.20;;;27.83;;
17993;SDS011;9122;48.406;9.984;2022-12-18T01:19:28;48.83;;;28.13;;
17993;SDS011;9122;48.406;9.984;2022-12-18T01:22:13;53.47;;;27.67;;
17993;SDS011;9122;48.406;9.984;2022-12-18T01:24:58;50.67;;;27.53;;
17993;SDS011;9122;48.406;9.984;2022-12-18T01:27:42;51.03;;;28.40;;
17993;SDS011;9122;48.406;9.984;2022-12-18T01:30:27;50.27;;;27.23;;
17993;SDS011;9122;48.406;9.984;2022-12-18T01:33:11;50.67;;;28.40;;
17993;SDS011;9122;48.406;9.984;2022-12-18T01:35:56;55.43;;;28.40;;
17993;SDS011;9122;48.406;9.984;2022-12-18T01:38:40;58.17;;;29.07;;
17993;SDS011;9122;48.406;9.984;2022-12-18T01:41:29;56.50;;;28.40;;
17993;SDS011;9122;48.406;9.984;2022-12-18T01:47:42;56.27;;;31.20;;
17993;SDS011;9122;48.406;9.984;2022-12-18T01:50:34;56.50;;;30.60;;
17993;SDS011;9122;48.406;9.984;2022-12-18T01:53:25;57.13;;;29.53;;
17993;SDS011;9122;48.406;9.984;2022-12-18T01:56:11;53.43;;;29.60;;
17993;SDS011;9122;48.406;9.984;2022-12-18T01:59:02;52.23;;;28.07;;
17993;SDS011;9122;48.406;9.984;2022-12-18T02:01:49;56.77;;;28.93;;
17993;SDS011;9122;48.406;9.984;2022-12-18T02:04:34;58.53;;;30.53;;
17993;SDS011;9122;48.406;9.984;2022-12-18T02:07:24;59.37;;;31.13;;
17993;SDS011;9122;48.406;9.984;2022-12-18T02:10:20;58.47;;;30.47;;
17993;SDS011;9122;48.406;9.984;2022-12-18T02:13:11;60.77;;;31.93;;
17993;SDS011;9122;48.406;9.984;2022-12-18T02:25:53;54.63;;;29.43;;
17993;SDS011;9122;48.406;9.984;2022-12-18T02:32:05;49.70;;;26.47;;
17993;SDS011;9122;48.406;9.984;2022-12-18T02:34:55;54.90;;;28.43;;
17993;SDS011;9122;48.406;9.984;2022-12-18T02:37:41;46.83;;;24.87;;
17993;SDS011;9122;48.406;9.984;2022-12-18T02:40:28;52.53;;;27.87;;
17993;SDS011;9122;48.406;9.984;2022-12-18T02:43:14;54.13;;;28.93;;
17993;SDS011;9122;48.406;9.984;2022-12-18T02:46:00;48.90;;;26.50;;
17993;SDS011;9122;48.406;9.984;2022-12-18T02:58:26;50.30;;;26.43;;
17993;SDS011;9122;48.406;9.984;2022-12-18T03:01:11;48.80;;;25.00;;
17993;SDS011;9122;48.406;9.984;2022-12-18T03:04:09;47.53;;;24.47;;
17993;SDS011;9122;48.406;9.984;2022-12-18T03:07:01;49.03;;;26.13;;
17993;SDS011;9122;48.406;9.984;2022-12-18T03:09:50;46.33;;;25.73;;
17993;SDS011;9122;48.406;9.984;2022-12-18T03:12:37;49.00;;;25.63;;
17993;SDS011;9122;48.406;9.984;2022-12-18T03:15:28;50.97;;;26.87;;
17993;SDS011;9122;48.406;9.984;2022-12-18T03:18:29;45.20;;;26.00;;
17993;SDS011;9122;48.406;9.984;2022-12-18T03:21:19;50.67;;;26.00;;
17993;SDS011;9122;48.406;9.984;2022-12-18T03:24:08;54.47;;;27.43;;
17993;SDS011;9122;48.406;9.984;2022-12-18T03:26:54;42.47;;;26.33;;
17993;SDS011;9122;48.406;9.984;2022-12-18T03:29:42;52.70;;;27.30;;
17993;SDS011;9122;48.406;9.984;2022-12-18T03:32:31;53.50;;;27.50;;
17993;SDS011;9122;48.406;9.984;2022-12-18T03:35:27;47.93;;;26.83;;
17993;SDS011;9122;48.406;9.984;2022-12-18T03:38:16;56.10;;;28.90;;
17993;SDS011;9122;48.406;9.984;2022-12-18T03:44:03;48.60;;;28.10;;
17993;SDS011;9122;48.406;9.984;2022-12-18T03:47:16;52.43;;;29.00;;
17993;SDS011;9122;48.406;9.984;2022-12-18T03:55:58;59.83;;;29.67;;
17993;SDS011;9122;48.406;9.984;2022-12-18T03:58:45;59.30;;;29.17;;
17993;SDS011;9122;48.406;9.984;2022-12-18T04:01:37;47.10;;;27.67;;
17993;SDS011;9122;48.406;9.984;2022-12-18T04:04:24;55.40;;;29.37;;
17993;SDS011;9122;48.406;9.984;2022-12-18T04:07:10;65.33;;;33.30;;
17993;SDS011;9122;48.406;9.984;2022-12-18T04:09:57;60.63;;;32.30;;
17993;SDS011;9122;48.406;9.984;2022-12-18T04:12:44;56.57;;;31.40;;
17993;SDS011;9122;48.406;9.984;2022-12-18T04:15:31;66.43;;;31.63;;
17993;SDS011;9122;48.406;9.984;2022-12-18T04:18:18;63.40;;;32.93;;
17993;SDS011;9122;48.406;9.984;2022-12-18T04:21:02;66.63;;;31.77;;
17993;SDS011;9122;48.406;9.984;2022-12-18T04:23:48;61.20;;;33.37;;
17993;SDS011;9122;48.406;9.984;2022-12-18T04:26:33;70.57;;;34.17;;
17993;SDS011;9122;48.406;9.984;2022-12-18T04:29:19;66.43;;;32.97;;
17993;SDS011;9122;48.406;9.984;2022-12-18T04:32:04;70.70;;;34.13;;
17993;SDS011;9122;48.406;9.984;2022-12-18T04:34:49;65.50;;;31.53;;
17993;SDS011;9122;48.406;9.984;2022-12-18T04:37:33;71.33;;;34.50;;
17993;SDS011;9122;48.406;9.984;2022-12-18T04:40:18;69.70;;;33.10;;
17993;SDS011;9122;48.406;9.984;2022-12-18T04:43:03;70.43;;;34.00;;
17993;SDS011;9122;48.406;9.984;2022-12-18T04:45:48;65.33;;;34.37;;
17993;SDS011;9122;48.406;9.984;2022-12-18T04:48:33;66.90;;;33.43;;
17993;SDS011;9122;48.406;9.984;2022-12-18T04:51:18;69.77;;;32.47;;
17993;SDS011;9122;48.406;9.984;2022-12-18T04:54:03;59.83;;;32.10;;
17993;SDS011;9122;48.406;9.984;2022-12-18T04:56:47;59.97;;;30.80;;
17993;SDS011;9122;48.406;9.984;2022-12-18T04:59:32;60.37;;;31.47;;
17993;SDS011;9122;48.406;9.984;2022-12-18T05:02:16;59.13;;;30.40;;
17993;SDS011;9122;48.406;9.984;2022-12-18T05:05:07;62.53;;;31.53;;
17993;SDS011;9122;48.406;9.984;2022-12-18T05:07:52;57.60;;;28.70;;
17993;SDS011;9122;48.406;9.984;2022-12-18T05:10:36;61.37;;;30.80;;
17993;SDS011;9122;48.406;9.984;2022-12-18T05:13:21;58.23;;;31.27;;
17993;SDS011;9122;48.406;9.984;2022-12-18T05:16:06;54.63;;;29.93;;
17993;SDS011;9122;48.406;9.984;2022-12-18T05:18:51;60.33;;;31.87;;
17993;SDS011;9122;48.406;9.984;2022-12-18T05:21:35;59.40;;;31.00;;
17993;SDS011;9122;48.406;9.984;2022-12-18T05:24:20;69.90;;;34.40;;
17993;SDS011;9122;48.406;9.984;2022-12-18T05:27:04;62.90;;;31.17;;
17993;SDS011;9122;48.406;9.984;2022-12-18T05:29:48;63.03;;;32.17;;
17993;SDS011;9122;48.406;9.984;2022-12-18T05:32:33;62.53;;;30.17;;
17993;SDS011;9122;48.406;9.984;2022-12-18T05:35:18;65.67;;;30.87;;
17993;SDS011;9122;48.406;9.984;2022-12-18T05:38:02;58.93;;;29.87;;
17993;SDS011;9122;48.406;9.984;2022-12-18T05:40:47;70.97;;;33.23;;
17993;SDS011;9122;48.406;9.984;2022-12-18T05:43:33;65.53;;;31.33;;
17993;SDS011;9122;48.406;9.984;2022-12-18T05:46:19;54.50;;;29.47;;
17993;SDS011;9122;48.406;9.984;2022-12-18T05:49:04;67.77;;;31.73;;
17993;SDS011;9122;48.406;9.984;2022-12-18T05:51:48;58.33;;;28.33;;
17993;SDS011;9122;48.406;9.984;2022-12-18T05:54:33;62.97;;;31.43;;
17993;SDS011;9122;48.406;9.984;2022-12-18T05:57:17;69.93;;;32.93;;
17993;SDS011;9122;48.406;9.984;2022-12-18T06:00:02;65.30;;;32.20;;
17993;SDS011;9122;48.406;9.984;2022-12-18T06:02:47;65.90;;;32.00;;
17993;SDS011;9122;48.406;9.984;2022-12-18T06:05:35;66.10;;;33.43;;
17993;SDS011;9122;48.406;9.984;2022-12-18T06:08:21;69.53;;;32.63;;
17993;SDS011;9122;48.406;9.984;2022-12-18T06:11:05;68.93;;;33.37;;
17993;SDS011;9122;48.406;9.984;2022-12-18T06:13:50;63.73;;;31.27;;
17993;SDS011;9122;48.406;9.984;2022-12-18T06:16:39;72.53;;;33.63;;
17993;SDS011;9122;48.406;9.984;2022-12-18T06:19:25;80.70;;;35.47;;
17993;SDS011;9122;48.406;9.984;2022-12-18T06:22:09;64.97;;;32.27;;
17993;SDS011;9122;48.406;9.984;2022-12-18T06:24:57;75.13;;;34.17;;
17993;SDS011;9122;48.406;9.984;2022-12-18T06:27:41;73.87;;;33.40;;
17993;SDS011;9122;48.406;9.984;2022-12-18T06:30:26;76.97;;;34.07;;
17993;SDS011;9122;48.406;9.984;2022-12-18T06:33:10;63.37;;;31.37;;
17993;SDS011;9122;48.406;9.984;2022-12-18T06:36:06;69.03;;;32.20;;
17993;SDS011;9122;48.406;9.984;2022-12-18T06:38:52;74.67;;;33.93;;
17993;SDS011;9122;48.406;9.984;2022-12-18T06:41:37;68.07;;;31.53;;
17993;SDS011;9122;48.406;9.984;2022-12-18T06:44:21;68.40;;;32.60;;
17993;SDS011;9122;48.406;9.984;2022-12-18T06:47:06;64.23;;;30.53;;
17993;SDS011;9122;48.406;9.984;2022-12-18T06:49:51;66.57;;;32.27;;
17993;SDS011;9122;48.406;9.984;2022-12-18T06:52:55;66.47;;;31.20;;
17993;SDS011;9122;48.406;9.984;2022-12-18T06:55:40;72.43;;;32.70;;
17993;SDS011;9122;48.406;9.984;2022-12-18T06:58:25;65.80;;;34.47;;
17993;SDS011;9122;48.406;9.984;2022-12-18T07:01:10;78.43;;;34.10;;
17993;SDS011;9122;48.406;9.984;2022-12-18T07:03:56;79.67;;;33.37;;
17993;SDS011;9122;48.406;9.984;2022-12-18T07:06:41;80.63;;;34.30;;
17993;SDS011;9122;48.406;9.984;2022-12-18T07:09:26;70.60;;;33.37;;
17993;SDS011;9122;48.406;9.984;2022-12-18T07:12:10;62.33;;;31.60;;
17993;SDS011;9122;48.406;9.984;2022-12-18T07:14:55;70.43;;;31.33;;
17993;SDS011;9122;48.406;9.984;2022-12-18T07:17:39;64.67;;;32.30;;
17993;SDS011;9122;48.406;9.984;2022-12-18T07:20:33;62.93;;;29.47;;
17993;SDS011;9122;48.406;9.984;2022-12-18T07:23:18;70.37;;;31.83;;
17993;SDS011;9122;48.406;9.984;2022-12-18T07:26:10;65.10;;;31.90;;
17993;SDS011;9122;48.406;9.984;2022-12-18T07:28:56;59.77;;;30.20;;
17993;SDS011;9122;48.406;9.984;2022-12-18T07:31:41;57.83;;;28.50;;
17993;SDS011;9122;48.406;9.984;2022-12-18T07:34:26;69.33;;;32.00;;
17993;SDS011;9122;48.406;9.984;2022-12-18T07:37:18;64.97;;;30.63;;
17993;SDS011;9122;48.406;9.984;2022-12-18T07:40:02;57.97;;;29.97;;
17993;SDS011;9122;48.406;9.984;2022-12-18T07:42:47;64.80;;;29.23;;
17993;SDS011;9122;48.406;9.984;2022-12-18T07:45:31;59.67;;;27.93;;
17993;SDS011;9122;48.406;9.984;2022-12-18T07:48:16;69.27;;;31.23;;
17993;SDS011;9122;48.406;9.984;2022-12-18T07:51:01;66.80;;;32.77;;
17993;SDS011;9122;48.406;9.984;2022-12-18T07:53:47;62.90;;;31.43;;
17993;SDS011;9122;48.406;9.984;2022-12-18T07:56:32;62.77;;;31.07;;
17993;SDS011;9122;48.406;9.984;2022-12-18T07:59:17;66.03;;;30.90;;
17993;SDS011;9122;48.406;9.984;2022-12-18T08:02:01;66.57;;;32.50;;
17993;SDS011;9122;48.406;9.984;2022-12-18T08:04:46;57.33;;;29.87;;
17993;SDS011;9122;48.406;9.984;2022-12-18T08:07:30;63.80;;;28.80;;
17993;SDS011;9122;48.406;9.984;2022-12-18T08:10:17;75.60;;;33.97;;
17993;SDS011;9122;48.406;9.984;2022-12-18T08:13:02;65.63;;;30.43;;
17993;SDS011;9122;48.406;9.984;2022-12-18T08:15:54;60.53;;;29.03;;
17993;SDS011;9122;48.406;9.984;2022-12-18T08:18:39;61.97;;;30.33;;
17993;SDS011;9122;48.406;9.984;2022-12-18T08:21:26;60.67;;;29.37;;
17993;SDS011;9122;48.406;9.984;2022-12-18T08:24:12;57.10;;;29.27;;
17993;SDS011;9122;48.406;9.984;2022-12-18T08:26:57;61.47;;;30.00;;
17993;SDS011;9122;48.406;9.984;2022-12-18T08:29:41;59.43;;;29.40;;
17993;SDS011;9122;48.406;9.984;2022-12-18T08:32:26;53.27;;;27.43;;
17993;SDS011;9122;48.406;9.984;2022-12-18T08:35:11;55.27;;;28.60;;
17993;SDS011;9122;48.406;9.984;2022-12-18T08:37:56;59.70;;;30.03;;
17993;SDS011;9122;48.406;9.984;2022-12-18T08:40:41;56.07;;;29.57;;
17993;SDS011;9122;48.406;9.984;2022-12-18T08:43:25;56.87;;;27.77;;
17993;SDS011;9122;48.406;9.984;2022-12-18T08:46:33;53.00;;;27.30;;
17993;SDS011;9122;48.406;9.984;2022-12-18T08:49:22;57.17;;;28.40;;
17993;SDS011;9122;48.406;9.984;2022-12-18T08:52:07;56.73;;;30.83;;
17993;SDS011;9122;48.406;9.984;2022-12-18T08:54:51;58.90;;;28.87;;
17993;SDS011;9122;48.406;9.984;2022-12-18T08:57:37;54.93;;;28.07;;
17993;SDS011;9122;48.406;9.984;2022-12-18T09:00:21;62.47;;;30.13;;
17993;SDS011;9122;48.406;9.984;2022-12-18T09:03:23;55.97;;;27.80;;
17993;SDS011;9122;48.406;9.984;2022-12-18T09:06:17;61.10;;;30.07;;
17993;SDS011;9122;48.406;9.984;2022-12-18T09:09:04;51.70;;;27.90;;
17993;SDS011;9122;48.406;9.984;2022-12-18T09:11:48;58.07;;;29.07;;
17993;SDS011;9122;48.406;9.984;2022-12-18T09:14:32;62.17;;;30.77;;
17993;SDS011;9122;48.406;9.984;2022-12-18T09:17:17;58.20;;;27.93;;
17993;SDS011;9122;48.406;9.984;2022-12-18T09:20:01;60.43;;;28.93;;
17993;SDS011;9122;48.406;9.984;2022-12-18T09:22:46;53.23;;;26.73;;
17993;SDS011;9122;48.406;9.984;2022-12-18T09:25:31;54.90;;;26.67;;
17993;SDS011;9122;48.406;9.984;2022-12-18T09:28:17;53.90;;;27.77;;
17993;SDS011;9122;48.406;9.984;2022-12-18T09:31:04;50.20;;;26.67;;
17993;SDS011;9122;48.406;9.984;2022-12-18T09:33:51;46.07;;;24.77;;
17993;SDS011;9122;48.406;9.984;2022-12-18T09:36:36;44.63;;;22.20;;
17993;SDS011;9122;48.406;9.984;2022-12-18T09:39:21;41.53;;;24.83;;
17993;SDS011;9122;48.406;9.984;2022-12-18T09:42:05;45.93;;;23.57;;
17993;SDS011;9122;48.406;9.984;2022-12-18T09:44:53;43.07;;;22.70;;
17993;SDS011;9122;48.406;9.984;2022-12-18T09:47:38;45.50;;;24.17;;
17993;SDS011;9122;48.406;9.984;2022-12-18T09:50:26;42.03;;;23.23;;
17993;SDS011;9122;48.406;9.984;2022-12-18T09:53:16;51.10;;;25.50;;
17993;SDS011;9122;48.406;9.984;2022-12-18T09:56:05;43.60;;;26.40;;
17993;SDS011;9122;48.406;9.984;2022-12-18T09:58:59;42.30;;;23.23;;
17993;SDS011;9122;48.406;9.984;2022-12-18T10:01:45;47.27;;;25.03;;
17993;SDS011;9122;48.406;9.984;2022-12-18T10:04:29;45.50;;;26.33;;
17993;SDS011;9122;48.406;9.984;2022-12-18T10:07:19;49.87;;;25.97;;
17993;SDS011;9122;48.406;9.984;2022-12-18T10:13:36;47.73;;;25.13;;
17993;SDS011;9122;48.406;9.984;2022-12-18T10:16:29;44.70;;;24.27;;
17993;SDS011;9122;48.406;9.984;2022-12-18T10:19:22;47.90;;;26.10;;
17993;SDS011;9122;48.406;9.984;2022-12-18T10:28:15;41.03;;;23.60;;
17993;SDS011;9122;48.406;9.984;2022-12-18T10:31:01;49.40;;;24.77;;
17993;SDS011;9122;48.406;9.984;2022-12-18T10:33:48;42.10;;;24.00;;
17993;SDS011;9122;48.406;9.984;2022-12-18T10:36:33;45.10;;;25.20;;
17993;SDS011;9122;48.406;9.984;2022-12-18T10:39:22;49.10;;;25.63;;
17993;SDS011;9122;48.406;9.984;2022-12-18T10:42:16;46.00;;;24.13;;
17993;SDS011;9122;48.406;9.984;2022-12-18T10:45:12;47.87;;;25.23;;
17993;SDS011;9122;48.406;9.984;2022-12-18T10:48:01;42.53;;;23.93;;
17993;SDS011;9122;48.406;9.984;2022-12-18T10:50:47;45.67;;;24.40;;
17993;SDS011;9122;48.406;9.984;2022-12-18T10:53:34;44.20;;;23.73;;
17993;SDS011;9122;48.406;9.984;2022-12-18T10:56:20;45.77;;;24.30;;
17993;SDS011;9122;48.406;9.984;2022-12-18T10:59:06;41.87;;;25.07;;
17993;SDS011;9122;48.406;9.984;2022-12-18T11:04:49;43.63;;;25.70;;
17993;SDS011;9122;48.406;9.984;2022-12-18T11:07:47;44.37;;;24.80;;
17993;SDS011;9122;48.406;9.984;2022-12-18T11:10:35;44.30;;;23.33;;
17993;SDS011;9122;48.406;9.984;2022-12-18T11:13:22;46.63;;;24.27;;
17993;SDS011;9122;48.406;9.984;2022-12-18T11:16:17;43.20;;;24.10;;
17993;SDS011;9122;48.406;9.984;2022-12-18T11:19:37;45.47;;;23.33;;
17993;SDS011;9122;48.406;9.984;2022-12-18T11:22:24;41.17;;;22.47;;
17993;SDS011;9122;48.406;9.984;2022-12-18T11:28:02;37.03;;;20.87;;
17993;SDS011;9122;48.406;9.984;2022-12-18T11:31:14;40.17;;;23.53;;
17993;SDS011;9122;48.406;9.984;2022-12-18T11:37:01;40.13;;;22.57;;
17993;SDS011;9122;48.406;9.984;2022-12-18T11:40:09;38.90;;;22.03;;
17993;SDS011;9122;48.406;9.984;2022-12-18T11:43:13;43.87;;;24.47;;
17993;SDS011;9122;48.406;9.984;2022-12-18T11:49:25;44.70;;;24.13;;
17993;SDS011;9122;48.406;9.984;2022-12-18T11:52:15;42.43;;;21.93;;
17993;SDS011;9122;48.406;9.984;2022-12-18T11:55:41;39.57;;;21.70;;
17993;SDS011;9122;48.406;9.984;2022-12-18T11:58:52;39.70;;;22.70;;
17993;SDS011;9122;48.406;9.984;2022-12-18T12:02:09;39.03;;;21.50;;
17993;SDS011;9122;48.406;9.984;2022-12-18T12:14:24;37.33;;;20.93;;
17993;SDS011;9122;48.406;9.984;2022-12-18T12:17:45;34.53;;;19.57;;
17993;SDS011;9122;48.406;9.984;2022-12-18T12:20:42;36.60;;;19.73;;
17993;SDS011;9122;48.406;9.984;2022-12-18T12:26:35;35.63;;;21.57;;
17993;SDS011;9122;48.406;9.984;2022-12-18T12:39:10;35.57;;;20.23;;
17993;SDS011;9122;48.406;9.984;2022-12-18T12:41:59;35.50;;;22.47;;
17993;SDS011;9122;48.406;9.984;2022-12-18T12:45:11;36.00;;;21.60;;
17993;SDS011;9122;48.406;9.984;2022-12-18T12:48:07;33.93;;;20.83;;
17993;SDS011;9122;48.406;9.984;2022-12-18T12:51:09;37.83;;;22.17;;
17993;SDS011;9122;48.406;9.984;2022-12-18T12:54:01;37.47;;;20.67;;
17993;SDS011;9122;48.406;9.984;2022-12-18T13:00:13;33.80;;;20.63;;
17993;SDS011;9122;48.406;9.984;2022-12-18T13:03:15;31.23;;;19.67;;
17993;SDS011;9122;48.406;9.984;2022-12-18T13:06:16;36.43;;;20.33;;
17993;SDS011;9122;48.406;9.984;2022-12-18T13:09:08;36.50;;;21.37;;
17993;SDS011;9122;48.406;9.984;2022-12-18T13:11:53;33.47;;;20.60;;
17993;SDS011;9122;48.406;9.984;2022-12-18T13:15:13;39.43;;;20.30;;
17993;SDS011;9122;48.406;9.984;2022-12-18T13:21:05;31.00;;;19.07;;
17993;SDS011;9122;48.406;9.984;2022-12-18T13:24:15;30.60;;;19.40;;
17993;SDS011;9122;48.406;9.984;2022-12-18T13:44:51;31.57;;;18.93;;
17993;SDS011;9122;48.406;9.984;2022-12-18T13:47:37;31.83;;;18.43;;
17993;SDS011;9122;48.406;9.984;2022-12-18T13:50:24;37.37;;;19.87;;
17993;SDS011;9122;48.406;9.984;2022-12-18T13:53:44;33.50;;;18.87;;
17993;SDS011;9122;48.406;9.984;2022-12-18T13:56:29;34.23;;;19.50;;
17993;SDS011;9122;48.406;9.984;2022-12-18T13:59:16;33.20;;;18.27;;
17993;SDS011;9122;48.406;9.984;2022-12-18T14:02:13;32.90;;;19.73;;
17993;SDS011;9122;48.406;9.984;2022-12-18T14:04:59;32.70;;;19.50;;
17993;SDS011;9122;48.406;9.984;2022-12-18T14:07:47;31.97;;;18.93;;
17993;SDS011;9122;48.406;9.984;2022-12-18T14:10:32;35.60;;;20.23;;
17993;SDS011;9122;48.406;9.984;2022-12-18T14:16:11;37.13;;;19.60;;
17993;SDS011;9122;48.406;9.984;2022-12-18T14:18:58;36.10;;;19.83;;
17993;SDS011;9122;48.406;9.984;2022-12-18T14:21:49;37.97;;;21.80;;
17993;SDS011;9122;48.406;9.984;2022-12-18T14:24:34;38.90;;;22.23;;
17993;SDS011;9122;48.406;9.984;2022-12-18T14:27:25;36.47;;;20.23;;
17993;SDS011;9122;48.406;9.984;2022-12-18T14:36:04;38.43;;;19.60;;
17993;SDS011;9122;48.406;9.984;2022-12-18T14:38:54;29.27;;;16.97;;
17993;SDS011;9122;48.406;9.984;2022-12-18T14:41:42;32.07;;;18.60;;
17993;SDS011;9122;48.406;9.984;2022-12-18T14:44:27;35.27;;;20.50;;
17993;SDS011;9122;48.406;9.984;2022-12-18T14:47:15;35.63;;;19.90;;
17993;SDS011;9122;48.406;9.984;2022-12-18T14:50:00;37.77;;;21.37;;
17993;SDS011;9122;48.406;9.984;2022-12-18T14:52:45;34.93;;;20.30;;
17993;SDS011;9122;48.406;9.984;2022-12-18T14:55:29;30.80;;;19.80;;
17993;SDS011;9122;48.406;9.984;2022-12-18T14:58:15;35.57;;;19.57;;
17993;SDS011;9122;48.406;9.984;2022-12-18T15:01:01;32.80;;;19.57;;
17993;SDS011;9122;48.406;9.984;2022-12-18T15:03:45;35.03;;;20.13;;
17993;SDS011;9122;48.406;9.984;2022-12-18T15:06:34;35.17;;;19.30;;
17993;SDS011;9122;48.406;9.984;2022-12-18T15:09:22;34.30;;;19.73;;
17993;SDS011;9122;48.406;9.984;2022-12-18T15:18:29;35.30;;;19.50;;
17993;SDS011;9122;48.406;9.984;2022-12-18T15:21:17;37.27;;;20.90;;
17993;SDS011;9122;48.406;9.984;2022-12-18T15:24:04;30.00;;;18.67;;
17993;SDS011;9122;48.406;9.984;2022-12-18T15:26:59;33.33;;;18.90;;
17993;SDS011;9122;48.406;9.984;2022-12-18T15:29:44;34.13;;;20.73;;
17993;SDS011;9122;48.406;9.984;2022-12-18T15:32:52;29.30;;;19.10;;
17993;SDS011;9122;48.406;9.984;2022-12-18T15:36:09;33.83;;;20.47;;
17993;SDS011;9122;48.406;9.984;2022-12-18T15:38:55;31.37;;;20.17;;
17993;SDS011;9122;48.406;9.984;2022-12-18T15:41:41;36.67;;;20.43;;
17993;SDS011;9122;48.406;9.984;2022-12-18T15:44:45;35.50;;;19.83;;
17993;SDS011;9122;48.406;9.984;2022-12-18T15:47:30;35.73;;;20.27;;
17993;SDS011;9122;48.406;9.984;2022-12-18T15:50:14;35.90;;;20.33;;
17993;SDS011;9122;48.406;9.984;2022-12-18T15:53:00;40.20;;;22.13;;
17993;SDS011;9122;48.406;9.984;2022-12-18T15:55:45;36.70;;;20.47;;
17993;SDS011;9122;48.406;9.984;2022-12-18T15:59:11;34.27;;;19.30;;
17993;SDS011;9122;48.406;9.984;2022-12-18T16:01:57;42.60;;;22.13;;
17993;SDS011;9122;48.406;9.984;2022-12-18T16:04:42;36.03;;;21.20;;
17993;SDS011;9122;48.406;9.984;2022-12-18T16:07:26;35.80;;;20.50;;
17993;SDS011;9122;48.406;9.984;2022-12-18T16:10:11;33.17;;;19.83;;
17993;SDS011;9122;48.406;9.984;2022-12-18T16:12:56;42.70;;;21.07;;
17993;SDS011;9122;48.406;9.984;2022-12-18T16:15:40;36.33;;;20.70;;
17993;SDS011;9122;48.406;9.984;2022-12-18T16:18:25;36.67;;;20.60;;
17993;SDS011;9122;48.406;9.984;2022-12-18T16:21:10;35.37;;;21.13;;
17993;SDS011;9122;48.406;9.984;2022-12-18T16:23:55;37.17;;;21.20;;
17993;SDS011;9122;48.406;9.984;2022-12-18T16:26:39;30.97;;;19.97;;
17993;SDS011;9122;48.406;9.984;2022-12-18T16:29:26;38.00;;;20.73;;
17993;SDS011;9122;48.406;9.984;2022-12-18T16:32:16;35.13;;;20.07;;
17993;SDS011;9122;48.406;9.984;2022-12-18T16:35:02;33.17;;;19.60;;
17993;SDS011;9122;48.406;9.984;2022-12-18T16:37:47;32.83;;;20.47;;
17993;SDS011;9122;48.406;9.984;2022-12-18T16:40:32;34.47;;;20.50;;
17993;SDS011;9122;48.406;9.984;2022-12-18T16:43:16;37.17;;;20.93;;
17993;SDS011;9122;48.406;9.984;2022-12-18T16:46:01;36.60;;;21.57;;
17993;SDS011;9122;48.406;9.984;2022-12-18T16:48:46;37.33;;;21.13;;
17993;SDS011;9122;48.406;9.984;2022-12-18T16:51:33;41.50;;;21.97;;
17993;SDS011;9122;48.406;9.984;2022-12-18T16:54:19;43.43;;;26.23;;
17993;SDS011;9122;48.406;9.984;2022-12-18T16:57:04;34.87;;;20.37;;
17993;SDS011;9122;48.406;9.984;2022-12-18T16:59:49;36.93;;;20.50;;
17993;SDS011;9122;48.406;9.984;2022-12-18T17:02:33;33.20;;;19.87;;
17993;SDS011;9122;48.406;9.984;2022-12-18T17:05:18;39.07;;;21.40;;
17993;SDS011;9122;48.406;9.984;2022-12-18T17:08:03;37.57;;;23.00;;
17993;SDS011;9122;48.406;9.984;2022-12-18T17:10:47;34.00;;;19.97;;
17993;SDS011;9122;48.406;9.984;2022-12-18T17:13:32;38.40;;;22.20;;
17993;SDS011;9122;48.406;9.984;2022-12-18T17:16:17;34.37;;;20.77;;
17993;SDS011;9122;48.406;9.984;2022-12-18T17:19:02;34.47;;;20.67;;
17993;SDS011;9122;48.406;9.984;2022-12-18T17:21:48;33.43;;;19.40;;
17993;SDS011;9122;48.406;9.984;2022-12-18T17:24:33;34.33;;;18.03;;
17993;SDS011;9122;48.406;9.984;2022-12-18T17:27:17;34.07;;;20.37;;
17993;SDS011;9122;48.406;9.984;2022-12-18T17:30:03;31.80;;;18.93;;
17993;SDS011;9122;48.406;9.984;2022-12-18T17:32:48;31.90;;;19.60;;
17993;SDS011;9122;48.406;9.984;2022-12-18T17:35:32;37.43;;;19.97;;
17993;SDS011;9122;48.406;9.984;2022-12-18T17:38:17;38.37;;;20.63;;
17993;SDS011;9122;48.406;9.984;2022-12-18T17:41:02;33.90;;;19.87;;
17993;SDS011;9122;48.406;9.984;2022-12-18T17:43:54;36.30;;;21.23;;
17993;SDS011;9122;48.406;9.984;2022-12-18T17:46:40;36.60;;;19.83;;
17993;SDS011;9122;48.406;9.984;2022-12-18T17:49:25;35.77;;;21.40;;
17993;SDS011;9122;48.406;9.984;2022-12-18T17:52:09;30.23;;;18.73;;
17993;SDS011;9122;48.406;9.984;2022-12-18T17:54:54;38.37;;;20.87;;
17993;SDS011;9122;48.406;9.984;2022-12-18T17:57:39;35.87;;;19.83;;
17993;SDS011;9122;48.406;9.984;2022-12-18T18:00:23;38.13;;;21.33;;
17993;SDS011;9122;48.406;9.984;2022-12-18T18:03:07;33.03;;;20.43;;
17993;SDS011;9122;48.406;9.984;2022-12-18T18:05:55;33.27;;;20.03;;
17993;SDS011;9122;48.406;9.984;2022-12-18T18:08:40;37.40;;;21.33;;
17993;SDS011;9122;48.406;9.984;2022-12-18T18:11:25;33.37;;;19.13;;
17993;SDS011;9122;48.406;9.984;2022-12-18T18:14:28;34.97;;;18.80;;
17993;SDS011;9122;48.406;9.984;2022-12-18T18:17:13;36.87;;;21.23;;
17993;SDS011;9122;48.406;9.984;2022-12-18T18:19:57;35.63;;;20.63;;
17993;SDS011;9122;48.406;9.984;2022-12-18T18:22:42;36.03;;;19.80;;
17993;SDS011;9122;48.406;9.984;2022-12-18T18:25:26;45.47;;;22.83;;
17993;SDS011;9122;48.406;9.984;2022-12-18T18:28:11;40.63;;;22.73;;
17993;SDS011;9122;48.406;9.984;2022-12-18T18:30:56;40.13;;;22.27;;
17993;SDS011;9122;48.406;9.984;2022-12-18T18:33:40;42.23;;;21.47;;
17993;SDS011;9122;48.406;9.984;2022-12-18T18:36:25;42.03;;;22.73;;